Time,TemperatureF,DewpointF,PressureIn,WindDirection,WindDirectionDegrees,WindSpeedMPH,WindSpeedGustMPH,Humidity,HourlyPrecipIn,Conditions,Clouds,dailyrainin,SoftwareType,DateUTC
2013-04-07 00:00:00,47.5,29.8,28.64,West,276,2.7,3.1,50,0.00,,CLR,0.00,VWS V14.00,2013-04-07 05:00:00,
2013-04-07 00:05:00,47.1,29.5,28.64,WNW,291,0.0,3.6,50,0.00,,CLR,0.00,VWS V14.00,2013-04-07 05:05:00,
2013-04-07 00:10:00,46.9,29.8,28.67,WNW,283,2.2,3.6,51,0.00,,CLR,0.00,VWS V14.00,2013-04-07 05:10:00,
2013-04-07 00:15:00,46.9,29.8,28.67,NW,311,2.2,4.9,51,0.00,,CLR,0.00,VWS V14.00,2013-04-07 05:15:00,
2013-04-07 00:20:00,46.6,29.4,28.67,WNW,293,3.6,4.9,51,0.00,,CLR,0.00,VWS V14.00,2013-04-07 05:20:00,
2013-04-07 00:25:00,46.2,29.6,28.67,WNW,290,0.0,4.9,52,0.00,,CLR,0.00,VWS V14.00,2013-04-07 05:25:00,
2013-04-07 00:30:00,46.4,29.8,28.67,WNW,286,2.7,2.7,52,0.00,,CLR,0.00,VWS V14.00,2013-04-07 05:30:00,
2013-04-07 00:35:00,46.2,29.6,28.67,West,279,0.0,5.4,52,0.00,,CLR,0.00,VWS V14.00,2013-04-07 05:35:00,
2013-04-07 00:40:00,46.2,30.0,28.67,WNW,292,3.1,3.1,53,0.00,,CLR,0.00,VWS V14.00,2013-04-07 05:40:00,
2013-04-07 00:45:00,46.0,29.9,28.67,West,268,2.2,4.5,53,0.00,,CLR,0.00,VWS V14.00,2013-04-07 05:45:00,
2013-04-07 00:50:00,45.7,29.5,28.67,WNW,299,0.0,2.7,53,0.00,,CLR,0.00,VWS V14.00,2013-04-07 05:50:00,
2013-04-07 00:55:00,45.5,29.4,28.67,NW,316,2.7,4.9,53,0.00,,CLR,0.00,VWS V14.00,2013-04-07 05:55:00,
2013-04-07 01:00:00,45.7,29.5,28.67,NW,313,4.0,5.4,53,0.00,,FEW200,0.00,VWS V14.00,2013-04-07 06:00:00,
2013-04-07 01:05:00,45.7,29.1,28.67,WNW,285,2.7,6.3,52,0.00,,FEW200,0.00,VWS V14.00,2013-04-07 06:05:00,
2013-04-07 01:10:00,45.7,29.1,28.67,NW,321,5.8,5.8,52,0.00,,FEW200,0.00,VWS V14.00,2013-04-07 06:10:00,
2013-04-07 01:15:00,45.5,28.9,28.67,WNW,302,3.6,6.3,52,0.00,,FEW200,0.00,VWS V14.00,2013-04-07 06:15:00,
2013-04-07 01:20:00,45.3,28.8,28.67,WNW,288,4.9,5.4,52,0.00,,FEW200,0.00,VWS V14.00,2013-04-07 06:20:00,
2013-04-07 01:25:00,45.0,28.4,28.67,WNW,284,0.0,5.4,52,0.00,,FEW200,0.00,VWS V14.00,2013-04-07 06:25:00,
2013-04-07 01:30:00,44.6,29.0,28.67,WSW,253,2.2,2.2,54,0.00,,FEW200,0.00,VWS V14.00,2013-04-07 06:30:00,
2013-04-07 01:35:00,44.6,29.5,28.67,WSW,238,2.7,4.5,55,0.00,,FEW200,0.00,VWS V14.00,2013-04-07 06:35:00,
2013-04-07 01:40:00,44.4,29.7,28.70,WNW,285,0.0,0.0,56,0.00,,FEW200,0.00,VWS V14.00,2013-04-07 06:40:00,
2013-04-07 01:45:00,44.2,29.5,28.70,WNW,290,2.7,2.7,56,0.00,,FEW200,0.00,VWS V14.00,2013-04-07 06:45:00,
2013-04-07 01:50:00,43.7,29.0,28.70,WNW,283,0.0,0.0,56,0.00,,FEW200,0.00,VWS V14.00,2013-04-07 06:50:00,
2013-04-07 01:55:00,43.5,29.7,28.70,WNW,301,4.0,4.0,58,0.00,,FEW200,0.00,VWS V14.00,2013-04-07 06:55:00,
2013-04-07 02:00:00,43.3,29.6,28.70,WNW,299,0.0,2.7,58,0.00,,SCT250,0.00,VWS V14.00,2013-04-07 07:00:00,
2013-04-07 02:05:00,43.3,30.0,28.70,West,262,0.0,4.0,59,0.00,,SCT250,0.00,VWS V14.00,2013-04-07 07:05:00,
2013-04-07 02:10:00,43.0,29.6,28.70,West,276,0.0,0.0,59,0.00,,SCT250,0.00,VWS V14.00,2013-04-07 07:10:00,
2013-04-07 02:15:00,43.0,30.1,28.70,WSW,249,0.0,4.0,60,0.00,,SCT250,0.00,VWS V14.00,2013-04-07 07:15:00,
2013-04-07 02:20:00,42.8,29.9,28.70,West,278,4.0,4.0,60,0.00,,SCT250,0.00,VWS V14.00,2013-04-07 07:20:00,
2013-04-07 02:25:00,42.8,29.1,28.70,WNW,285,0.0,4.0,58,0.00,,SCT250,0.00,VWS V14.00,2013-04-07 07:25:00,
2013-04-07 02:30:00,42.4,29.1,28.70,WNW,285,0.0,0.0,59,0.00,,SCT250,0.00,VWS V14.00,2013-04-07 07:30:00,
2013-04-07 02:35:00,42.6,30.1,28.70,WSW,258,0.0,3.6,61,0.00,,SCT250,0.00,VWS V14.00,2013-04-07 07:35:00,
2013-04-07 02:40:00,43.0,30.1,28.70,WSW,250,4.0,4.0,60,0.00,,SCT250,0.00,VWS V14.00,2013-04-07 07:40:00,
2013-04-07 02:45:00,43.0,29.2,28.70,WSW,254,0.0,4.0,58,0.00,,SCT250,0.00,VWS V14.00,2013-04-07 07:45:00,
2013-04-07 02:50:00,42.8,29.1,28.70,WSW,249,4.0,4.0,58,0.00,,SCT250,0.00,VWS V14.00,2013-04-07 07:50:00,
2013-04-07 02:55:00,42.4,28.3,28.70,WSW,249,0.0,4.0,57,0.00,,SCT250,0.00,VWS V14.00,2013-04-07 07:55:00,
2013-04-07 03:00:00,42.1,28.4,28.70,WSW,249,0.0,2.2,58,0.00,,SCT250,0.00,VWS V14.00,2013-04-07 08:00:00,
2013-04-07 03:06:00,41.9,28.2,28.70,WNW,299,3.1,4.0,58,0.00,,SCT250,0.00,VWS V14.00,2013-04-07 08:06:00,
2013-04-07 03:11:00,41.5,27.9,28.70,West,275,0.0,0.0,58,0.00,,SCT250,0.00,VWS V14.00,2013-04-07 08:11:00,
2013-04-07 03:16:00,41.2,27.5,28.70,West,276,0.0,0.0,58,0.00,,SCT250,0.00,VWS V14.00,2013-04-07 08:16:00,
2013-04-07 03:20:00,41.2,28.8,28.70,WNW,298,0.0,2.7,61,0.00,,SCT250,0.00,VWS V14.00,2013-04-07 08:20:00,
2013-04-07 03:26:00,41.0,29.0,28.70,WNW,298,0.0,2.7,62,0.00,,SCT250,0.00,VWS V14.00,2013-04-07 08:26:00,
2013-04-07 03:31:00,40.6,29.0,28.70,WNW,298,0.0,0.0,63,0.00,,SCT250,0.00,VWS V14.00,2013-04-07 08:31:00,
2013-04-07 03:35:00,40.1,28.1,28.70,WNW,298,0.0,0.0,62,0.00,,SCT250,0.00,VWS V14.00,2013-04-07 08:35:00,
2013-04-07 03:40:00,39.4,27.9,28.70,WNW,298,0.0,0.0,63,0.00,,SCT250,0.00,VWS V14.00,2013-04-07 08:40:00,
2013-04-07 03:45:00,39.0,27.5,28.70,WNW,298,0.0,0.0,63,0.00,,SCT250,0.00,VWS V14.00,2013-04-07 08:45:00,
2013-04-07 03:50:00,39.7,30.1,28.70,WSW,256,0.0,2.2,68,0.00,,SCT250,0.00,VWS V14.00,2013-04-07 08:50:00,
2013-04-07 03:55:00,40.3,32.0,28.70,WSW,255,0.0,3.6,72,0.00,,SCT250,0.00,VWS V14.00,2013-04-07 08:55:00,
2013-04-07 04:01:00,39.9,32.3,28.70,WSW,256,0.0,0.0,74,0.00,,BKN300,0.00,VWS V14.00,2013-04-07 09:01:00,
2013-04-07 04:05:00,40.1,32.8,28.70,WSW,246,3.1,4.0,75,0.00,,BKN300,0.00,VWS V14.00,2013-04-07 09:05:00,
2013-04-07 04:10:00,39.9,32.7,28.70,West,277,2.7,3.6,75,0.00,,BKN300,0.00,VWS V14.00,2013-04-07 09:10:00,
2013-04-07 04:15:00,39.7,32.5,28.70,West,271,0.0,3.6,75,0.00,,BKN300,0.00,VWS V14.00,2013-04-07 09:15:00,
2013-04-07 04:20:00,39.4,32.1,28.70,West,278,0.0,0.0,75,0.00,,BKN300,0.00,VWS V14.00,2013-04-07 09:20:00,
2013-04-07 04:25:00,39.2,32.3,28.70,WNW,287,0.0,3.6,76,0.00,,BKN300,0.00,VWS V14.00,2013-04-07 09:25:00,
2013-04-07 04:30:00,38.8,31.9,28.70,WNW,287,0.0,0.0,76,0.00,,BKN300,0.00,VWS V14.00,2013-04-07 09:30:00,
2013-04-07 04:35:00,38.5,31.3,28.70,WNW,287,0.0,0.0,75,0.00,,BKN300,0.00,VWS V14.00,2013-04-07 09:35:00,
2013-04-07 04:40:00,38.5,31.6,28.70,WNW,287,0.0,0.0,76,0.00,,BKN300,0.00,VWS V14.00,2013-04-07 09:40:00,
2013-04-07 04:45:00,38.7,32.1,28.70,West,279,0.0,2.2,77,0.00,,BKN300,0.00,VWS V14.00,2013-04-07 09:45:00,
2013-04-07 04:50:00,38.1,31.6,28.70,West,279,0.0,0.0,77,0.00,,BKN300,0.00,VWS V14.00,2013-04-07 09:50:00,
2013-04-07 04:55:00,37.9,31.4,28.70,West,279,0.0,0.0,77,0.00,,BKN300,0.00,VWS V14.00,2013-04-07 09:55:00,
2013-04-07 05:00:00,37.8,31.5,28.70,West,279,0.0,0.0,78,0.00,,SCT300,0.00,VWS V14.00,2013-04-07 10:00:00,
2013-04-07 05:05:00,37.8,31.8,28.70,West,279,0.0,0.0,79,0.00,,SCT300,0.00,VWS V14.00,2013-04-07 10:05:00,
2013-04-07 05:10:00,37.6,31.7,28.70,West,279,0.0,0.0,79,0.00,,SCT300,0.00,VWS V14.00,2013-04-07 10:10:00,
2013-04-07 05:15:00,37.4,31.5,28.70,West,279,0.0,0.0,79,0.00,,SCT300,0.00,VWS V14.00,2013-04-07 10:15:00,
2013-04-07 05:20:00,36.9,31.0,28.70,West,279,0.0,0.0,79,0.00,,SCT300,0.00,VWS V14.00,2013-04-07 10:20:00,
2013-04-07 05:26:00,37.4,31.5,28.73,WSW,256,0.0,3.6,79,0.00,,SCT300,0.00,VWS V14.00,2013-04-07 10:26:00,
2013-04-07 05:31:00,36.9,31.3,28.73,WSW,256,0.0,0.0,80,0.00,,SCT300,0.00,VWS V14.00,2013-04-07 10:31:00,
2013-04-07 05:36:00,36.7,31.4,28.73,WSW,256,0.0,0.0,81,0.00,,SCT300,0.00,VWS V14.00,2013-04-07 10:36:00,
2013-04-07 05:41:00,36.1,30.9,28.73,WSW,256,0.0,0.0,81,0.00,,SCT300,0.00,VWS V14.00,2013-04-07 10:41:00,
2013-04-07 05:46:00,36.0,30.4,28.73,WSW,256,0.0,0.0,80,0.00,,SCT300,0.00,VWS V14.00,2013-04-07 10:46:00,
2013-04-07 05:51:00,35.8,30.2,28.73,WSW,256,0.0,0.0,80,0.00,,SCT300,0.00,VWS V14.00,2013-04-07 10:51:00,
2013-04-07 05:56:00,35.4,29.9,28.73,WSW,256,0.0,0.0,80,0.00,,SCT300,0.00,VWS V14.00,2013-04-07 10:56:00,
2013-04-07 06:01:00,34.9,29.4,28.73,WSW,256,0.0,0.0,80,0.00,,FEW300,0.00,VWS V14.00,2013-04-07 11:01:00,
2013-04-07 06:06:00,34.7,29.2,28.73,WSW,256,0.0,0.0,80,0.00,,FEW300,0.00,VWS V14.00,2013-04-07 11:06:00,
2013-04-07 06:11:00,35.1,29.8,28.73,WSW,256,0.0,0.0,81,0.00,,FEW300,0.00,VWS V14.00,2013-04-07 11:11:00,
2013-04-07 06:16:00,34.9,30.2,28.73,WSW,256,0.0,0.0,83,0.00,,FEW300,0.00,VWS V14.00,2013-04-07 11:16:00,
2013-04-07 06:21:00,34.7,30.1,28.73,WSW,256,0.0,0.0,83,0.00,,FEW300,0.00,VWS V14.00,2013-04-07 11:21:00,
2013-04-07 06:26:00,35.1,30.4,28.73,WSW,256,0.0,0.0,83,0.00,,FEW300,0.00,VWS V14.00,2013-04-07 11:26:00,
2013-04-07 06:32:00,35.4,31.4,28.73,WSW,256,0.0,0.0,85,0.00,,FEW300,0.00,VWS V14.00,2013-04-07 11:32:00,
2013-04-07 06:37:00,35.1,31.3,28.73,WSW,256,0.0,0.0,86,0.00,,FEW300,0.00,VWS V14.00,2013-04-07 11:37:00,
2013-04-07 06:42:00,34.9,31.1,28.73,WSW,256,0.0,0.0,86,0.00,,FEW300,0.00,VWS V14.00,2013-04-07 11:42:00,
2013-04-07 06:47:00,34.3,30.6,28.73,WSW,256,0.0,0.0,86,0.00,,FEW300,0.00,VWS V14.00,2013-04-07 11:47:00,
2013-04-07 06:52:00,34.2,30.4,28.73,WSW,256,0.0,0.0,86,0.00,,FEW300,0.00,VWS V14.00,2013-04-07 11:52:00,
2013-04-07 06:57:00,34.7,31.2,28.73,WSW,256,0.0,0.0,87,0.00,,FEW300,0.00,VWS V14.00,2013-04-07 11:57:00,
2013-04-07 07:02:00,35.2,32.0,28.73,West,273,0.0,0.0,88,0.00,,,0.00,VWS V14.00,2013-04-07 12:02:00,
2013-04-07 07:07:00,35.4,32.2,28.73,NW,307,3.6,3.6,88,0.00,,,0.00,VWS V14.00,2013-04-07 12:07:00,
2013-04-07 07:12:00,36.0,32.8,28.73,NW,315,3.1,3.6,88,0.00,,,0.00,VWS V14.00,2013-04-07 12:12:00,
2013-04-07 07:17:00,36.1,33.2,28.73,NNW,335,0.0,4.0,89,0.00,,,0.00,VWS V14.00,2013-04-07 12:17:00,
2013-04-07 07:22:00,36.3,33.4,28.73,NNW,329,0.0,3.6,89,0.00,,,0.00,VWS V14.00,2013-04-07 12:22:00,
2013-04-07 07:27:00,37.0,34.7,28.76,NNW,329,2.7,3.6,91,0.00,,,0.00,VWS V14.00,2013-04-07 12:27:00,
2013-04-07 07:32:00,36.9,34.5,28.76,WNW,301,2.7,5.4,91,0.00,,,0.00,VWS V14.00,2013-04-07 12:32:00,
2013-04-07 07:37:00,36.7,34.0,28.76,NW,308,2.2,5.4,90,0.00,,,0.00,VWS V14.00,2013-04-07 12:37:00,
2013-04-07 07:42:00,35.6,31.8,28.76,WNW,292,4.0,4.9,86,0.00,,,0.00,VWS V14.00,2013-04-07 12:42:00,
2013-04-07 07:47:00,35.1,30.1,28.76,WSW,255,2.7,4.9,82,0.00,,,0.00,VWS V14.00,2013-04-07 12:47:00,
2013-04-07 07:52:00,34.9,29.6,28.76,NW,305,2.2,4.0,81,0.00,,,0.00,VWS V14.00,2013-04-07 12:52:00,
2013-04-07 07:57:00,34.9,29.6,28.76,NW,326,0.0,4.0,81,0.00,,,0.00,VWS V14.00,2013-04-07 12:57:00,
2013-04-07 08:02:00,35.1,29.8,28.76,North,353,5.8,7.6,81,0.00,,,0.00,VWS V14.00,2013-04-07 13:02:00,
2013-04-07 08:07:00,35.1,29.8,28.76,North,353,0.0,7.6,81,0.00,,,0.00,VWS V14.00,2013-04-07 13:07:00,
2013-04-07 08:12:00,35.8,30.5,28.79,NE,42,2.7,2.7,81,0.00,,,0.00,VWS V14.00,2013-04-07 13:12:00,
2013-04-07 08:17:00,36.3,31.1,28.79,North,5,0.0,3.6,81,0.00,,,0.00,VWS V14.00,2013-04-07 13:17:00,
2013-04-07 08:22:00,36.7,31.4,28.79,North,5,0.0,0.0,81,0.00,,,0.00,VWS V14.00,2013-04-07 13:22:00,
2013-04-07 08:27:00,36.1,30.6,28.79,North,353,2.7,3.6,80,0.00,,,0.00,VWS V14.00,2013-04-07 13:27:00,
2013-04-07 08:32:00,36.0,30.4,28.79,WNW,298,3.6,4.0,80,0.00,,,0.00,VWS V14.00,2013-04-07 13:32:00,
2013-04-07 08:37:00,36.0,30.4,28.79,North,2,2.2,4.5,80,0.00,,,0.00,VWS V14.00,2013-04-07 13:37:00,
2013-04-07 08:42:00,36.3,31.1,28.79,WNW,283,2.7,5.4,81,0.00,,,0.00,VWS V14.00,2013-04-07 13:42:00,
2013-04-07 08:47:00,37.4,32.1,28.79,NW,311,3.1,5.4,81,0.00,,,0.00,VWS V14.00,2013-04-07 13:47:00,
2013-04-07 08:52:00,37.9,32.3,28.79,NW,324,4.0,4.0,80,0.00,,,0.00,VWS V14.00,2013-04-07 13:52:00,
2013-04-07 08:57:00,38.5,31.9,28.79,NNW,333,0.0,4.9,77,0.00,,,0.00,VWS V14.00,2013-04-07 13:57:00,
2013-04-07 09:02:00,38.7,30.8,28.79,NNE,14,3.1,4.0,73,0.00,,,0.00,VWS V14.00,2013-04-07 14:02:00,
2013-04-07 09:07:00,39.0,29.7,28.79,NNW,343,4.0,4.0,69,0.00,,,0.00,VWS V14.00,2013-04-07 14:07:00,
2013-04-07 09:12:00,39.0,29.0,28.79,North,0,5.4,6.3,67,0.00,,,0.00,VWS V14.00,2013-04-07 14:12:00,
2013-04-07 09:17:00,39.2,28.1,28.79,North,0,4.0,6.3,64,0.00,,,0.00,VWS V14.00,2013-04-07 14:17:00,
2013-04-07 09:22:00,39.7,28.2,28.79,NNW,345,3.6,4.0,63,0.00,,,0.00,VWS V14.00,2013-04-07 14:22:00,
2013-04-07 09:27:00,40.3,27.5,28.79,North,353,4.9,5.4,60,0.00,,,0.00,VWS V14.00,2013-04-07 14:27:00,
2013-04-07 09:32:00,40.3,26.3,28.79,NW,307,2.7,5.4,57,0.00,,,0.00,VWS V14.00,2013-04-07 14:32:00,
2013-04-07 09:37:00,40.8,26.8,28.79,NW,317,4.9,5.8,57,0.00,,,0.00,VWS V14.00,2013-04-07 14:37:00,
2013-04-07 09:43:00,40.3,25.9,28.76,North,357,3.6,8.1,56,0.00,,,0.00,VWS V14.00,2013-04-07 14:43:00,
2013-04-07 09:48:00,41.5,27.0,28.76,NW,325,0.0,8.1,56,0.00,,,0.00,VWS V14.00,2013-04-07 14:48:00,
2013-04-07 09:53:00,42.4,24.6,28.76,NNE,16,5.4,5.8,49,0.00,,,0.00,VWS V14.00,2013-04-07 14:53:00,
2013-04-07 09:58:00,42.8,24.5,28.79,North,0,5.8,6.7,48,0.00,,,0.00,VWS V14.00,2013-04-07 14:58:00,
2013-04-07 10:03:00,44.4,26.0,28.79,NNW,334,0.0,6.7,48,0.00,,,0.00,VWS V14.00,2013-04-07 15:03:00,
2013-04-07 10:08:00,45.5,24.9,28.79,North,0,5.8,6.7,44,0.00,,,0.00,VWS V14.00,2013-04-07 15:08:00,
2013-04-07 10:13:00,45.7,23.9,28.79,West,278,0.0,3.1,42,0.00,,,0.00,VWS V14.00,2013-04-07 15:13:00,
2013-04-07 10:18:00,46.6,24.2,28.79,NNW,346,0.0,4.9,41,0.00,,,0.00,VWS V14.00,2013-04-07 15:18:00,
2013-04-07 10:23:00,46.2,23.2,28.79,North,357,2.7,5.8,40,0.00,,,0.00,VWS V14.00,2013-04-07 15:23:00,
2013-04-07 10:28:00,47.7,23.9,28.79,NNE,24,4.5,6.3,39,0.00,,,0.00,VWS V14.00,2013-04-07 15:28:00,
2013-04-07 10:33:00,47.1,22.2,28.79,NNE,24,5.4,8.1,37,0.00,,,0.00,VWS V14.00,2013-04-07 15:33:00,
2013-04-07 10:38:00,47.8,23.5,28.79,WNW,293,3.1,8.1,38,0.00,,,0.00,VWS V14.00,2013-04-07 15:38:00,
2013-04-07 10:42:00,47.5,23.2,28.79,WNW,300,3.1,4.5,38,0.00,,,0.00,VWS V14.00,2013-04-07 15:42:00,
2013-04-07 10:48:00,48.6,23.5,28.79,North,4,2.2,5.8,37,0.00,,,0.00,VWS V14.00,2013-04-07 15:48:00,
2013-04-07 10:52:00,51.1,24.4,28.79,NNW,334,3.1,5.4,35,0.00,,,0.00,VWS V14.00,2013-04-07 15:52:00,
2013-04-07 10:57:00,51.4,21.8,28.79,NE,47,5.4,5.4,31,0.00,,,0.00,VWS V14.00,2013-04-07 15:57:00,
2013-04-07 11:03:00,50.9,22.1,28.79,NNE,13,0.0,4.0,32,0.00,,,0.00,VWS V14.00,2013-04-07 16:03:00,
2013-04-07 11:08:00,51.1,20.8,28.79,NNE,16,4.9,6.3,30,0.00,,,0.00,VWS V14.00,2013-04-07 16:08:00,
2013-04-07 11:12:00,50.9,20.6,28.79,NW,311,5.8,7.6,30,0.00,,,0.00,VWS V14.00,2013-04-07 16:12:00,
2013-04-07 11:18:00,52.5,21.2,28.79,NNW,337,6.3,7.6,29,0.00,,,0.00,VWS V14.00,2013-04-07 16:18:00,
2013-04-07 11:22:00,51.8,21.4,28.79,NE,34,5.8,6.3,30,0.00,,,0.00,VWS V14.00,2013-04-07 16:22:00,
2013-04-07 11:27:00,53.6,22.1,28.79,NE,56,3.6,7.6,29,0.00,,,0.00,VWS V14.00,2013-04-07 16:27:00,
2013-04-07 11:33:00,53.8,21.5,28.79,ENE,57,6.3,6.3,28,0.00,,,0.00,VWS V14.00,2013-04-07 16:33:00,
2013-04-07 11:37:00,53.1,20.8,28.79,ENE,63,4.0,6.3,28,0.00,,,0.00,VWS V14.00,2013-04-07 16:37:00,
2013-04-07 11:42:00,52.9,22.3,28.79,NE,54,2.7,5.8,30,0.00,,,0.00,VWS V14.00,2013-04-07 16:42:00,
2013-04-07 11:48:00,52.3,21.8,28.79,NE,39,3.1,6.7,30,0.00,,,0.00,VWS V14.00,2013-04-07 16:48:00,
2013-04-07 11:53:00,51.3,21.7,28.79,NNE,32,5.4,8.3,31,0.00,,,0.00,VWS V14.00,2013-04-07 16:53:00,
2013-04-07 11:58:00,52.2,21.7,28.76,North,6,5.8,8.3,30,0.00,,,0.00,VWS V14.00,2013-04-07 16:58:00,
2013-04-07 12:03:00,52.0,20.7,28.76,NNE,31,5.4,6.7,29,0.00,,OVC270,0.00,VWS V14.00,2013-04-07 17:03:00,
2013-04-07 12:08:00,54.3,21.9,28.76,North,0,3.1,7.6,28,0.00,,OVC270,0.00,VWS V14.00,2013-04-07 17:08:00,
2013-04-07 12:13:00,54.0,21.6,28.79,NE,49,3.1,6.3,28,0.00,,OVC270,0.00,VWS V14.00,2013-04-07 17:13:00,
2013-04-07 12:18:00,54.9,21.5,28.79,East,89,2.7,7.6,27,0.00,,OVC270,0.00,VWS V14.00,2013-04-07 17:18:00,
2013-04-07 12:23:00,54.3,21.1,28.79,NNE,15,6.3,6.3,27,0.00,,OVC270,0.00,VWS V14.00,2013-04-07 17:23:00,
2013-04-07 12:28:00,54.5,22.1,28.79,NNE,21,4.5,6.3,28,0.00,,OVC270,0.00,VWS V14.00,2013-04-07 17:28:00,
2013-04-07 12:33:00,54.9,22.4,28.79,North,353,3.6,6.3,28,0.00,,OVC270,0.00,VWS V14.00,2013-04-07 17:33:00,
2013-04-07 12:38:00,54.5,21.2,28.79,NNE,33,6.3,8.3,27,0.00,,OVC270,0.00,VWS V14.00,2013-04-07 17:38:00,
2013-04-07 12:43:00,55.0,21.7,28.76,North,1,6.3,7.6,27,0.00,,OVC270,0.00,VWS V14.00,2013-04-07 17:43:00,
2013-04-07 12:48:00,55.0,22.5,28.76,NNW,343,5.8,7.6,28,0.00,,OVC270,0.00,VWS V14.00,2013-04-07 17:48:00,
2013-04-07 12:53:00,56.3,22.8,28.76,NW,307,4.0,5.8,27,0.00,,OVC270,0.00,VWS V14.00,2013-04-07 17:53:00,
2013-04-07 12:58:00,57.4,22.8,28.76,East,80,4.0,7.6,26,0.00,,OVC270,0.00,VWS V14.00,2013-04-07 17:58:00,
2013-04-07 13:03:00,59.2,23.4,28.76,NNE,18,5.8,8.3,25,0.00,,OVC250,0.00,VWS V14.00,2013-04-07 18:03:00,
2013-04-07 13:08:00,58.5,23.7,28.76,NE,34,5.4,8.3,26,0.00,,OVC250,0.00,VWS V14.00,2013-04-07 18:08:00,
2013-04-07 13:13:00,60.3,24.3,28.76,North,357,5.8,6.3,25,0.00,,OVC250,0.00,VWS V14.00,2013-04-07 18:13:00,
2013-04-07 13:18:00,57.4,21.9,28.76,NE,42,6.3,8.1,25,0.00,,OVC250,0.00,VWS V14.00,2013-04-07 18:18:00,
2013-04-07 13:23:00,58.3,22.6,28.76,NNW,341,5.8,8.7,25,0.00,,OVC250,0.00,VWS V14.00,2013-04-07 18:23:00,
2013-04-07 13:28:00,60.6,24.6,28.73,NNW,334,7.6,8.7,25,0.00,,OVC250,0.00,VWS V14.00,2013-04-07 18:28:00,
2013-04-07 13:33:00,59.4,23.6,28.73,North,353,5.4,8.1,25,0.00,,OVC250,0.00,VWS V14.00,2013-04-07 18:33:00,
2013-04-07 13:38:00,61.9,24.7,28.73,NE,35,3.1,10.5,24,0.00,,OVC250,0.00,VWS V14.00,2013-04-07 18:38:00,
2013-04-07 13:43:00,64.2,25.7,28.73,NNE,18,5.8,8.3,23,0.00,,OVC250,0.00,VWS V14.00,2013-04-07 18:43:00,
2013-04-07 13:48:00,63.5,25.1,28.73,North,2,6.7,8.3,23,0.00,,OVC250,0.00,VWS V14.00,2013-04-07 18:48:00,
2013-04-07 13:53:00,61.7,24.6,28.73,NNE,22,6.3,8.1,24,0.00,,OVC250,0.00,VWS V14.00,2013-04-07 18:53:00,
2013-04-07 13:58:00,58.3,22.6,28.73,NNE,26,5.8,8.3,25,0.00,,OVC250,0.00,VWS V14.00,2013-04-07 18:58:00,
2013-04-07 14:03:00,58.1,22.5,28.73,NNE,22,5.8,7.2,25,0.00,,BKN250,0.00,VWS V14.00,2013-04-07 19:03:00,
2013-04-07 14:08:00,58.5,22.8,28.73,NNE,28,5.4,7.2,25,0.00,,BKN250,0.00,VWS V14.00,2013-04-07 19:08:00,
2013-04-07 14:13:00,59.7,23.9,28.73,North,0,3.1,4.0,25,0.00,,BKN250,0.00,VWS V14.00,2013-04-07 19:13:00,
2013-04-07 14:18:00,59.2,23.4,28.73,NNE,28,4.0,6.3,25,0.00,,BKN250,0.00,VWS V14.00,2013-04-07 19:18:00,
2013-04-07 14:23:00,58.6,22.9,28.73,NE,47,6.3,9.6,25,0.00,,BKN250,0.00,VWS V14.00,2013-04-07 19:23:00,
2013-04-07 14:28:00,61.2,24.1,28.73,NW,314,4.0,9.6,24,0.00,,BKN250,0.00,VWS V14.00,2013-04-07 19:28:00,
2013-04-07 14:33:00,62.4,25.2,28.73,NE,48,4.0,5.8,24,0.00,,BKN250,0.00,VWS V14.00,2013-04-07 19:33:00,
2013-04-07 14:38:00,63.1,25.8,28.73,NNE,18,5.4,7.2,24,0.00,,BKN250,0.00,VWS V14.00,2013-04-07 19:38:00,
2013-04-07 14:43:00,64.0,25.5,28.70,ENE,72,4.0,9.6,23,0.00,,BKN250,0.00,VWS V14.00,2013-04-07 19:43:00,
2013-04-07 14:48:00,61.5,24.4,28.70,NE,42,8.7,11.0,24,0.00,,BKN250,0.00,VWS V14.00,2013-04-07 19:48:00,
2013-04-07 14:53:00,63.0,24.6,28.70,NNE,27,7.6,8.3,23,0.00,,BKN250,0.00,VWS V14.00,2013-04-07 19:53:00,
2013-04-07 14:58:00,62.8,24.5,28.70,NE,39,2.7,8.3,23,0.00,,BKN250,0.00,VWS V14.00,2013-04-07 19:58:00,
2013-04-07 15:03:00,63.9,25.4,28.70,NE,50,5.8,6.3,23,0.00,,OVC250,0.00,VWS V14.00,2013-04-07 20:03:00,
2013-04-07 15:09:00,62.2,25.0,28.70,ENE,60,8.3,8.3,24,0.00,,OVC250,0.00,VWS V14.00,2013-04-07 20:09:00,
2013-04-07 15:14:00,61.2,24.1,28.70,NNE,28,8.3,8.3,24,0.00,,OVC250,0.00,VWS V14.00,2013-04-07 20:14:00,
2013-04-07 15:19:00,61.9,24.7,28.70,NNW,346,4.9,10.1,24,0.00,,OVC250,0.00,VWS V14.00,2013-04-07 20:19:00,
2013-04-07 15:24:00,64.2,25.7,28.70,NE,55,5.8,9.2,23,0.00,,OVC250,0.00,VWS V14.00,2013-04-07 20:24:00,
2013-04-07 15:29:00,66.0,23.8,28.70,North,8,5.8,9.2,20,0.00,,OVC250,0.00,VWS V14.00,2013-04-07 20:29:00,
2013-04-07 15:34:00,66.0,23.8,28.70,NNE,32,8.1,8.1,20,0.00,,OVC250,0.00,VWS V14.00,2013-04-07 20:34:00,
2013-04-07 15:39:00,68.2,25.6,28.70,NE,44,5.4,8.7,20,0.00,,OVC250,0.00,VWS V14.00,2013-04-07 20:39:00,
2013-04-07 15:44:00,68.7,26.1,28.67,NNW,345,5.4,8.3,20,0.00,,OVC250,0.00,VWS V14.00,2013-04-07 20:44:00,
2013-04-07 15:49:00,67.8,25.3,28.67,North,353,8.1,8.7,20,0.00,,OVC250,0.00,VWS V14.00,2013-04-07 20:49:00,
2013-04-07 15:55:00,65.1,23.1,28.67,North,0,5.8,8.7,20,0.00,,OVC250,0.00,VWS V14.00,2013-04-07 20:55:00,
2013-04-07 16:00:00,65.8,23.7,28.67,North,2,8.1,8.7,20,0.00,,OVC250,0.00,VWS V14.00,2013-04-07 21:00:00,
2013-04-07 16:05:00,64.0,25.5,28.67,North,1,5.4,8.1,23,0.00,,BKN250,0.00,VWS V14.00,2013-04-07 21:05:00,
2013-04-07 16:10:00,63.5,25.1,28.67,North,6,7.6,8.1,23,0.00,,BKN250,0.00,VWS V14.00,2013-04-07 21:10:00,
2013-04-07 16:15:00,63.9,25.4,28.67,NNW,328,9.2,9.2,23,0.00,,BKN250,0.00,VWS V14.00,2013-04-07 21:15:00,
2013-04-07 16:20:00,63.9,25.4,28.67,North,7,5.8,10.5,23,0.00,,BKN250,0.00,VWS V14.00,2013-04-07 21:20:00,
2013-04-07 16:25:00,63.7,25.2,28.67,North,0,8.3,8.7,23,0.00,,BKN250,0.00,VWS V14.00,2013-04-07 21:25:00,
2013-04-07 16:30:00,64.0,25.5,28.64,North,357,5.4,8.7,23,0.00,,BKN250,0.00,VWS V14.00,2013-04-07 21:30:00,
2013-04-07 16:35:00,64.2,25.7,28.64,North,8,6.3,10.1,23,0.00,,BKN250,0.00,VWS V14.00,2013-04-07 21:35:00,
2013-04-07 16:40:00,64.0,25.5,28.64,North,8,4.9,5.4,23,0.00,,BKN250,0.00,VWS V14.00,2013-04-07 21:40:00,
2013-04-07 16:45:00,66.2,26.3,28.64,North,353,4.0,8.3,22,0.00,,BKN250,0.00,VWS V14.00,2013-04-07 21:45:00,
2013-04-07 16:50:00,69.4,26.7,28.64,NNW,338,5.8,8.3,20,0.00,,BKN250,0.00,VWS V14.00,2013-04-07 21:50:00,
2013-04-07 16:55:00,68.2,25.6,28.64,NNE,26,6.7,9.6,20,0.00,,BKN250,0.00,VWS V14.00,2013-04-07 21:55:00,
2013-04-07 17:00:00,66.9,24.6,28.64,North,9,8.1,8.3,20,0.00,,BKN250,0.00,VWS V14.00,2013-04-07 22:00:00,
2013-04-07 17:05:00,67.1,24.7,28.64,NNW,327,5.8,10.5,20,0.00,,BKN250,0.00,VWS V14.00,2013-04-07 22:05:00,
2013-04-07 17:10:00,67.3,24.9,28.64,NE,40,6.3,10.5,20,0.00,,BKN250,0.00,VWS V14.00,2013-04-07 22:10:00,
2013-04-07 17:15:00,67.3,24.9,28.61,NNE,15,7.6,8.1,20,0.00,,BKN250,0.00,VWS V14.00,2013-04-07 22:15:00,
2013-04-07 17:20:00,67.5,25.0,28.61,NNW,340,7.6,7.6,20,0.00,,BKN250,0.00,VWS V14.00,2013-04-07 22:20:00,
2013-04-07 17:25:00,67.6,25.2,28.61,North,1,4.5,8.1,20,0.00,,BKN250,0.00,VWS V14.00,2013-04-07 22:25:00,
2013-04-07 17:30:00,68.0,25.5,28.61,NNE,23,5.4,5.4,20,0.00,,BKN250,0.00,VWS V14.00,2013-04-07 22:30:00,
2013-04-07 17:35:00,67.8,25.3,28.61,NNE,32,3.6,6.3,20,0.00,,BKN250,0.00,VWS V14.00,2013-04-07 22:35:00,
2013-04-07 17:40:00,67.5,25.0,28.61,ENE,57,5.4,5.4,20,0.00,,BKN250,0.00,VWS V14.00,2013-04-07 22:40:00,
2013-04-07 17:45:00,68.0,25.5,28.61,NNE,17,4.9,7.6,20,0.00,,BKN250,0.00,VWS V14.00,2013-04-07 22:45:00,
2013-04-07 17:50:00,68.2,25.6,28.61,NNE,14,6.7,8.1,20,0.00,,BKN250,0.00,VWS V14.00,2013-04-07 22:50:00,
2013-04-07 17:55:00,68.2,25.6,28.61,NE,42,6.3,8.3,20,0.00,,BKN250,0.00,VWS V14.00,2013-04-07 22:55:00,
2013-04-07 18:00:00,68.5,25.9,28.61,NNE,17,5.8,8.7,20,0.00,,BKN250,0.00,VWS V14.00,2013-04-07 23:00:00,
2013-04-07 18:05:00,67.6,25.2,28.61,North,3,10.5,10.5,20,0.00,,BKN250,0.00,VWS V14.00,2013-04-07 23:05:00,
2013-04-07 18:10:00,67.3,24.9,28.61,NE,53,4.9,5.4,20,0.00,,BKN250,0.00,VWS V14.00,2013-04-07 23:10:00,
2013-04-07 18:15:00,67.3,24.9,28.61,NE,39,4.0,7.6,20,0.00,,BKN250,0.00,VWS V14.00,2013-04-07 23:15:00,
2013-04-07 18:20:00,67.6,25.2,28.61,NNE,28,6.7,6.7,20,0.00,,BKN250,0.00,VWS V14.00,2013-04-07 23:20:00,
2013-04-07 18:25:00,67.5,25.0,28.61,NNE,29,5.8,8.1,20,0.00,,BKN250,0.00,VWS V14.00,2013-04-07 23:25:00,
2013-04-07 18:30:00,67.5,21.2,28.61,NNE,17,7.6,7.6,17,0.00,,BKN250,0.00,VWS V14.00,2013-04-07 23:30:00,
2013-04-07 18:35:00,67.5,21.2,28.61,NE,55,5.4,7.6,17,0.00,,BKN250,0.00,VWS V14.00,2013-04-07 23:35:00,
2013-04-07 18:40:00,67.5,21.2,28.61,ENE,69,5.4,5.4,17,0.00,,BKN250,0.00,VWS V14.00,2013-04-07 23:40:00,
2013-04-07 18:45:00,67.8,21.5,28.61,NNE,29,4.0,8.1,17,0.00,,BKN250,0.00,VWS V14.00,2013-04-07 23:45:00,
2013-04-07 18:50:00,68.5,22.0,28.61,ENE,57,3.6,3.6,17,0.00,,BKN250,0.00,VWS V14.00,2013-04-07 23:50:00,
2013-04-07 18:55:00,67.8,21.5,28.61,NE,45,5.8,8.1,17,0.00,,BKN250,0.00,VWS V14.00,2013-04-07 23:55:00,
2013-04-07 19:00:00,67.6,21.3,28.59,NNE,24,4.9,4.9,17,0.00,,BKN250,0.00,VWS V14.00,2013-04-08 00:00:00,
2013-04-07 19:05:00,67.3,21.0,28.59,NNW,346,8.7,8.7,17,0.00,,BKN250,0.00,VWS V14.00,2013-04-08 00:05:00,
2013-04-07 19:10:00,67.3,21.0,28.59,NNE,23,4.0,5.8,17,0.00,,BKN250,0.00,VWS V14.00,2013-04-08 00:10:00,
2013-04-07 19:15:00,66.7,24.4,28.59,NNE,33,5.4,7.6,20,0.00,,BKN250,0.00,VWS V14.00,2013-04-08 00:15:00,
2013-04-07 19:20:00,66.6,24.3,28.59,NNE,26,4.0,5.4,20,0.00,,BKN250,0.00,VWS V14.00,2013-04-08 00:20:00,
2013-04-07 19:25:00,66.4,24.1,28.59,NE,42,5.4,7.6,20,0.00,,BKN250,0.00,VWS V14.00,2013-04-08 00:25:00,
2013-04-07 19:30:00,66.0,23.8,28.59,NNE,22,5.8,5.8,20,0.00,,BKN250,0.00,VWS V14.00,2013-04-08 00:30:00,
2013-04-07 19:35:00,65.8,23.7,28.59,NNE,27,3.6,9.2,20,0.00,,BKN250,0.00,VWS V14.00,2013-04-08 00:35:00,
2013-04-07 19:40:00,65.7,23.5,28.59,NNE,22,4.0,4.9,20,0.00,,BKN250,0.00,VWS V14.00,2013-04-08 00:40:00,
2013-04-07 19:45:00,64.8,22.8,28.59,NNE,31,3.6,4.9,20,0.00,,BKN250,0.00,VWS V14.00,2013-04-08 00:45:00,
2013-04-07 19:50:00,64.4,22.5,28.59,NE,37,5.4,5.8,20,0.00,,BKN250,0.00,VWS V14.00,2013-04-08 00:50:00,
2013-04-07 19:55:00,64.4,22.5,28.59,NNE,33,4.9,8.1,20,0.00,,BKN250,0.00,VWS V14.00,2013-04-08 00:55:00,
2013-04-07 20:00:00,63.9,23.2,28.59,NNE,33,3.1,5.4,21,0.00,,BKN250,0.00,VWS V14.00,2013-04-08 01:00:00,
2013-04-07 20:05:00,63.3,24.9,28.59,North,10,3.1,7.2,23,0.00,,BKN250,0.00,VWS V14.00,2013-04-08 01:05:00,
2013-04-07 20:10:00,62.6,24.3,28.59,NNE,12,4.0,4.0,23,0.00,,BKN250,0.00,VWS V14.00,2013-04-08 01:10:00,
2013-04-07 20:15:00,62.4,25.2,28.59,North,8,3.6,5.4,24,0.00,,BKN250,0.00,VWS V14.00,2013-04-08 01:15:00,
2013-04-07 20:20:00,62.1,24.9,28.59,NNE,16,3.6,3.6,24,0.00,,BKN250,0.00,VWS V14.00,2013-04-08 01:20:00,
2013-04-07 20:25:00,62.1,24.9,28.59,NE,52,4.9,6.3,24,0.00,,BKN250,0.00,VWS V14.00,2013-04-08 01:25:00,
2013-04-07 20:30:00,62.1,24.9,28.59,NNE,26,5.4,5.4,24,0.00,,BKN250,0.00,VWS V14.00,2013-04-08 01:30:00,
2013-04-07 20:35:00,61.9,24.7,28.59,NE,40,4.9,5.8,24,0.00,,BKN250,0.00,VWS V14.00,2013-04-08 01:35:00,
2013-04-07 20:40:00,62.1,24.9,28.59,NNE,29,5.8,6.3,24,0.00,,BKN250,0.00,VWS V14.00,2013-04-08 01:40:00,
2013-04-07 20:45:00,61.9,24.7,28.59,North,11,6.3,8.3,24,0.00,,BKN250,0.00,VWS V14.00,2013-04-08 01:45:00,
2013-04-07 20:50:00,61.9,24.7,28.59,North,349,5.4,5.4,24,0.00,,BKN250,0.00,VWS V14.00,2013-04-08 01:50:00,
2013-04-07 20:55:00,62.1,24.9,28.56,NNE,14,11.4,11.4,24,0.00,,BKN250,0.00,VWS V14.00,2013-04-08 01:55:00,
2013-04-07 21:00:00,62.1,24.9,28.56,ENE,67,5.8,5.8,24,0.00,,BKN250,0.00,VWS V14.00,2013-04-08 02:00:00,
2013-04-07 21:06:00,61.9,24.7,28.56,NE,34,4.9,8.3,24,0.00,,BKN250,0.00,VWS V14.00,2013-04-08 02:06:00,
2013-04-07 21:11:00,61.7,24.6,28.56,NE,48,3.6,4.9,24,0.00,,BKN250,0.00,VWS V14.00,2013-04-08 02:11:00,
2013-04-07 21:16:00,61.7,24.6,28.56,NNE,31,4.0,8.1,24,0.00,,BKN250,0.00,VWS V14.00,2013-04-08 02:16:00,
2013-04-07 21:21:00,61.3,24.3,28.56,NE,46,2.7,7.6,24,0.00,,BKN250,0.00,VWS V14.00,2013-04-08 02:21:00,
2013-04-07 21:26:00,61.2,24.1,28.56,NE,50,6.3,7.6,24,0.00,,BKN250,0.00,VWS V14.00,2013-04-08 02:26:00,
2013-04-07 21:31:00,61.2,24.1,28.56,NE,45,4.9,6.3,24,0.00,,BKN250,0.00,VWS V14.00,2013-04-08 02:31:00,
2013-04-07 21:36:00,61.0,24.0,28.56,ENE,76,8.1,9.2,24,0.00,,BKN250,0.00,VWS V14.00,2013-04-08 02:36:00,
2013-04-07 21:41:00,61.2,24.1,28.56,NNE,17,4.9,9.2,24,0.00,,BKN250,0.00,VWS V14.00,2013-04-08 02:41:00,
2013-04-07 21:46:00,61.0,24.0,28.56,NNE,30,3.6,9.2,24,0.00,,BKN250,0.00,VWS V14.00,2013-04-08 02:46:00,
2013-04-07 21:51:00,61.0,24.0,28.56,NE,52,5.8,7.6,24,0.00,,BKN250,0.00,VWS V14.00,2013-04-08 02:51:00,
2013-04-07 21:56:00,61.0,24.0,28.56,NNE,20,3.1,8.1,24,0.00,,BKN250,0.00,VWS V14.00,2013-04-08 02:56:00,
2013-04-07 22:02:00,61.0,24.0,28.56,NE,51,3.1,10.1,24,0.00,,BKN250,0.00,VWS V14.00,2013-04-08 03:02:00,
2013-04-07 22:07:00,60.6,24.6,28.56,NNE,31,3.6,10.1,25,0.00,,BKN250,0.00,VWS V14.00,2013-04-08 03:07:00,
2013-04-07 22:12:00,60.6,24.6,28.59,NE,45,5.8,5.8,25,0.00,,BKN250,0.00,VWS V14.00,2013-04-08 03:12:00,
2013-04-07 22:17:00,60.4,24.5,28.59,ENE,70,5.8,8.1,25,0.00,,BKN250,0.00,VWS V14.00,2013-04-08 03:17:00,
2013-04-07 22:22:00,60.3,24.3,28.59,ENE,65,6.3,7.6,25,0.00,,BKN250,0.00,VWS V14.00,2013-04-08 03:22:00,
2013-04-07 22:27:00,60.3,24.3,28.56,NE,48,6.3,8.3,25,0.00,,BKN250,0.00,VWS V14.00,2013-04-08 03:27:00,
2013-04-07 22:32:00,60.1,24.2,28.56,North,4,4.9,6.3,25,0.00,,BKN250,0.00,VWS V14.00,2013-04-08 03:32:00,
2013-04-07 22:37:00,59.9,24.0,28.56,NNE,29,3.6,10.1,25,0.00,,BKN250,0.00,VWS V14.00,2013-04-08 03:37:00,
2013-04-07 22:42:00,59.7,23.9,28.53,NNE,19,5.4,6.3,25,0.00,,BKN250,0.00,VWS V14.00,2013-04-08 03:42:00,
2013-04-07 22:47:00,59.7,23.9,28.53,NE,46,4.0,6.3,25,0.00,,BKN250,0.00,VWS V14.00,2013-04-08 03:47:00,
2013-04-07 22:52:00,59.5,23.7,28.53,NE,38,4.9,5.4,25,0.00,,BKN250,0.00,VWS V14.00,2013-04-08 03:52:00,
2013-04-07 22:57:00,59.5,23.7,28.56,NNE,13,8.1,8.3,25,0.00,,BKN250,0.00,VWS V14.00,2013-04-08 03:57:00,
2013-04-07 23:00:00,59.7,23.9,28.56,NE,50,5.4,8.7,25,0.00,,OVC250,0.00,VWS V14.00,2013-04-08 04:00:00,
2013-04-07 23:01:00,59.5,23.7,28.56,NNE,28,2.2,6.7,25,0.00,,OVC250,0.00,VWS V14.00,2013-04-08 04:01:00,
2013-04-07 23:06:00,59.5,23.7,28.56,NE,50,7.2,8.1,25,0.00,,OVC250,0.00,VWS V14.00,2013-04-08 04:06:00,
2013-04-07 23:11:00,59.5,23.7,28.56,NNE,33,5.8,6.3,25,0.00,,OVC250,0.00,VWS V14.00,2013-04-08 04:11:00,
2013-04-07 23:17:00,59.5,23.7,28.56,NNE,16,5.4,8.1,25,0.00,,OVC250,0.00,VWS V14.00,2013-04-08 04:17:00,
2013-04-07 23:22:00,59.2,24.3,28.56,NE,52,6.3,6.3,26,0.00,,OVC250,0.00,VWS V14.00,2013-04-08 04:22:00,
2013-04-07 23:27:00,59.0,24.2,28.53,NE,46,3.6,8.3,26,0.00,,OVC250,0.00,VWS V14.00,2013-04-08 04:27:00,
2013-04-07 23:32:00,58.8,24.9,28.53,NE,34,3.6,4.9,27,0.00,,OVC250,0.00,VWS V14.00,2013-04-08 04:32:00,
2013-04-07 23:37:00,58.5,25.5,28.53,NNE,26,3.6,5.4,28,0.00,,OVC250,0.00,VWS V14.00,2013-04-08 04:37:00,
2013-04-07 23:42:00,57.9,25.9,28.53,ENE,58,5.4,5.4,29,0.00,,OVC250,0.00,VWS V14.00,2013-04-08 04:42:00,
2013-04-07 23:47:00,57.9,26.7,28.53,ENE,60,4.0,10.1,30,0.00,,OVC250,0.00,VWS V14.00,2013-04-08 04:47:00,
2013-04-07 23:52:00,57.7,27.3,28.53,East,82,5.8,8.1,31,0.00,,OVC250,0.00,VWS V14.00,2013-04-08 04:52:00,
2013-04-07 23:57:00,57.9,27.5,28.56,ENE,57,5.8,8.7,31,0.00,,OVC250,0.00,VWS V14.00,2013-04-08 04:57:00,